createdAt,value
2023-04-04T00:02:08.532Z,101407.39
2023-04-04T00:06:12.139Z,101405.11
2023-04-04T00:10:15.937Z,101402.21
2023-04-04T00:14:19.423Z,101392.00
2023-04-04T00:18:22.348Z,101391.08
2023-04-04T00:22:26.064Z,101386.84
2023-04-04T00:26:29.140Z,101377.44
2023-04-04T00:30:32.169Z,101374.45
2023-04-04T00:34:36.478Z,101375.63
2023-04-04T00:38:39.454Z,101371.64
2023-04-04T00:42:42.637Z,101371.64
2023-04-04T00:46:46.040Z,101366.18
2023-04-04T00:50:49.158Z,101363.30
2023-04-04T00:54:52.044Z,101360.65
2023-04-04T00:58:56.307Z,101358.02
2023-04-04T01:02:59.395Z,101350.34
2023-04-04T01:07:03.130Z,101349.74
2023-04-04T01:11:06.690Z,101349.82
2023-04-04T01:15:09.856Z,101347.27
2023-04-04T01:19:22.024Z,101341.90
2023-04-04T01:23:32.679Z,101336.84
2023-04-04T01:27:36.034Z,101331.35
2023-04-04T01:32:00.947Z,101331.02
2023-04-04T01:36:03.826Z,101331.20
2023-04-04T01:40:21.665Z,101328.27
2023-04-04T01:44:25.320Z,101327.05
2023-04-04T01:48:28.341Z,101325.94
2023-04-04T01:52:31.382Z,101324.55
2023-04-04T01:56:35.637Z,101322.02
2023-04-04T02:00:38.540Z,101316.73
2023-04-04T02:04:41.547Z,101310.59
2023-04-04T02:08:44.471Z,101312.80
2023-04-04T02:12:47.595Z,101308.05
2023-04-04T02:16:51.724Z,101305.39
2023-04-04T02:21:17.522Z,101304.88
2023-04-04T02:25:22.328Z,101309.52
2023-04-04T02:29:26.012Z,101307.94
2023-04-04T02:33:29.897Z,101312.74
2023-04-04T02:37:32.783Z,101312.60
2023-04-04T02:41:35.746Z,101314.02
2023-04-04T02:45:38.671Z,101310.16
2023-04-04T02:49:41.679Z,101309.88
2023-04-04T02:53:45.188Z,101310.71
2023-04-04T02:57:52.479Z,101310.07
2023-04-04T03:01:56.139Z,101308.64
2023-04-04T03:06:00.326Z,101309.55
2023-04-04T03:10:03.998Z,101307.54
2023-04-04T03:14:07.680Z,101305.85
2023-04-04T03:18:10.917Z,101307.70
2023-04-04T03:22:13.860Z,101305.15
2023-04-04T03:26:17.377Z,101306.38
2023-04-04T03:30:21.040Z,101303.35
2023-04-04T03:34:24.864Z,101299.38
2023-04-04T03:38:27.856Z,101302.95
2023-04-04T03:42:34.959Z,101304.83
2023-04-04T03:46:38.179Z,101310.80
2023-04-04T03:50:41.850Z,101314.04
2023-04-04T03:54:46.174Z,101310.05
2023-04-04T03:58:49.758Z,101304.13
2023-04-04T04:02:53.843Z,101303.36
2023-04-04T04:06:57.606Z,101302.73
2023-04-04T04:11:08.021Z,101310.30
2023-04-04T04:15:12.219Z,101308.39
2023-04-04T04:19:16.223Z,101310.89
2023-04-04T04:23:19.312Z,101313.77
2023-04-04T04:27:25.917Z,101319.39
2023-04-04T04:31:31.329Z,101317.10
2023-04-04T04:35:40.341Z,101316.27
2023-04-04T04:39:45.694Z,101318.02
2023-04-04T04:43:49.146Z,101316.48
2023-04-04T04:47:52.962Z,101317.48
2023-04-04T04:51:56.293Z,101316.05
2023-04-04T04:56:00.238Z,101316.38
2023-04-04T05:00:04.764Z,101321.02
2023-04-04T05:04:09.171Z,101317.50
2023-04-04T05:08:13.520Z,101321.23
2023-04-04T05:12:16.603Z,101322.22
2023-04-04T05:16:20.690Z,101326.92
2023-04-04T05:20:24.422Z,101334.03
2023-04-04T05:24:28.686Z,101333.90
2023-04-04T05:28:31.871Z,101334.37
2023-04-04T05:32:35.639Z,101335.48
2023-04-04T05:36:39.269Z,101335.67
2023-04-04T05:40:43.155Z,101337.27
2023-04-04T05:44:46.462Z,101342.55
2023-04-04T05:48:52.867Z,101344.09
2023-04-04T05:52:56.120Z,101344.73
2023-04-04T05:56:59.164Z,101345.96
2023-04-04T06:01:07.114Z,101352.50
2023-04-04T06:05:10.565Z,101353.29
2023-04-04T06:09:13.623Z,101350.00
2023-04-04T06:13:16.823Z,101343.56
2023-04-04T06:17:20.235Z,101345.18
2023-04-04T06:21:23.543Z,101346.89
2023-04-04T06:25:27.234Z,101347.67
2023-04-04T06:29:31.441Z,101342.45
2023-04-04T06:33:34.437Z,101341.63
2023-04-04T06:37:37.427Z,101341.99
2023-04-04T06:41:40.706Z,101338.53
2023-04-04T06:45:44.314Z,101341.88
2023-04-04T06:49:47.501Z,101344.52
2023-04-04T06:53:50.924Z,101343.67
2023-04-04T06:57:54.433Z,101341.40
2023-04-04T07:01:58.134Z,101339.98
2023-04-04T07:06:05.610Z,101342.02
2023-04-04T07:10:09.506Z,101340.57
2023-04-04T07:14:12.746Z,101340.05
2023-04-04T07:18:16.693Z,101339.58
2023-04-04T07:22:20.389Z,101340.20
2023-04-04T07:26:23.442Z,101341.00
2023-04-04T07:30:29.130Z,101344.31
2023-04-04T07:34:32.872Z,101345.85
2023-04-04T07:38:36.328Z,101345.18
2023-04-04T07:42:47.420Z,101345.13
2023-04-04T07:47:02.395Z,101342.29
2023-04-04T07:51:10.361Z,101346.18
2023-04-04T07:55:15.006Z,101342.77
2023-04-04T07:59:21.610Z,101344.87
2023-04-04T08:03:25.860Z,101342.15
2023-04-04T08:07:30.418Z,101347.84
2023-04-04T08:11:33.565Z,101340.48
2023-04-04T08:15:37.911Z,101338.05
2023-04-04T08:19:41.477Z,101338.99
2023-04-04T08:23:44.394Z,101330.17
2023-04-04T08:27:48.142Z,101329.42
2023-04-04T08:31:54.121Z,101329.79
2023-04-04T08:35:59.810Z,101327.13
2023-04-04T08:40:06.846Z,101319.83
2023-04-04T08:44:17.315Z,101315.02
2023-04-04T08:48:24.133Z,101313.48
2023-04-04T08:52:28.534Z,101311.17
2023-04-04T08:56:33.312Z,101310.05
2023-04-04T09:00:40.682Z,101304.28
2023-04-04T09:04:54.598Z,101309.16
2023-04-04T09:09:07.488Z,101308.32
2023-04-04T09:13:16.091Z,101304.04
2023-04-04T09:17:21.044Z,101305.25
2023-04-04T09:21:24.252Z,101300.16
2023-04-04T09:25:27.578Z,101294.44
2023-04-04T09:29:30.761Z,101298.29
2023-04-04T09:33:34.811Z,101298.52
2023-04-04T09:37:40.459Z,101296.48
2023-04-04T09:41:47.724Z,101290.70
2023-04-04T09:45:52.274Z,101290.73
2023-04-04T09:50:00.594Z,101293.83
2023-04-04T09:54:04.287Z,101293.77
2023-04-04T09:58:24.607Z,101291.90
2023-04-04T10:02:30.916Z,101296.98
2023-04-04T10:06:37.535Z,101299.02
2023-04-04T10:11:09.840Z,101296.79
2023-04-04T10:15:16.994Z,101299.00
2023-04-04T10:19:20.648Z,101296.11
2023-04-04T10:23:26.678Z,101300.48
2023-04-04T10:27:30.223Z,101307.81
2023-04-04T10:31:38.418Z,101310.70
2023-04-04T10:35:45.426Z,101307.74
2023-04-04T10:40:20.808Z,101302.94
2023-04-04T10:44:25.687Z,101291.00
2023-04-04T10:48:29.685Z,101287.34
2023-04-04T10:52:33.926Z,101279.57
2023-04-04T10:56:37.842Z,101275.03
2023-04-04T11:00:55.370Z,101269.32
2023-04-04T11:05:11.853Z,101267.30
2023-04-04T11:09:15.397Z,101263.52
2023-04-04T11:13:22.872Z,101265.02
2023-04-04T11:18:04.283Z,101264.74
2023-04-04T11:22:16.072Z,101258.65
2023-04-04T11:26:35.719Z,101257.23
2023-04-04T11:30:48.049Z,101257.89
2023-04-04T11:34:51.976Z,101260.58
2023-04-04T11:38:58.699Z,101251.05
2023-04-04T11:43:08.237Z,101237.85
2023-04-04T11:47:13.636Z,101233.55
2023-04-04T11:51:18.940Z,101231.78
2023-04-04T11:55:23.137Z,101226.41
2023-04-04T11:59:26.606Z,101224.29
2023-04-04T12:03:30.208Z,101225.77
2023-04-04T12:07:35.705Z,101227.48
2023-04-04T12:11:39.865Z,101235.05
2023-04-04T12:15:44.159Z,101237.66
2023-04-04T12:19:47.721Z,101240.71
2023-04-04T12:23:51.092Z,101235.18
2023-04-04T12:27:55.363Z,101226.43
2023-04-04T12:31:58.930Z,101226.64
2023-04-04T12:36:06.754Z,101220.75
2023-04-04T12:40:11.338Z,101218.98
2023-04-04T12:44:36.076Z,101210.77
2023-04-04T12:48:40.099Z,101208.98
2023-04-04T12:52:43.017Z,101199.66
2023-04-04T12:56:46.756Z,101190.19
2023-04-04T13:00:55.298Z,101190.35
2023-04-04T13:04:58.892Z,101190.05
2023-04-04T13:09:01.836Z,101181.23
2023-04-04T13:13:05.998Z,101192.98
2023-04-04T13:17:09.581Z,101194.30
2023-04-04T13:21:13.301Z,101188.26
2023-04-04T13:25:16.276Z,101181.97
2023-04-04T13:29:19.425Z,101182.75
2023-04-04T13:33:22.503Z,101185.05
2023-04-04T13:37:26.676Z,101176.64
2023-04-04T13:41:30.014Z,101170.86
2023-04-04T13:45:34.420Z,101170.05
2023-04-04T13:49:37.469Z,101170.02
2023-04-04T13:53:41.598Z,101172.77
2023-04-04T13:57:44.823Z,101171.75
2023-04-04T14:01:47.781Z,101167.84
2023-04-04T14:05:50.976Z,101164.96
2023-04-04T14:09:54.189Z,101160.27
2023-04-04T14:13:58.046Z,101151.11
2023-04-04T14:18:01.280Z,101149.69
2023-04-04T14:22:05.225Z,101145.61
2023-04-04T14:26:08.883Z,101152.85
2023-04-04T14:30:12.565Z,101153.65
2023-04-04T14:34:15.581Z,101155.84
2023-04-04T14:38:19.081Z,101154.29
2023-04-04T14:42:22.183Z,101145.61
2023-04-04T14:46:26.241Z,101142.80
2023-04-04T14:50:29.393Z,101140.73
2023-04-04T14:54:32.616Z,101140.05
2023-04-04T14:58:36.112Z,101137.49
2023-04-04T15:02:39.297Z,101136.02
2023-04-04T15:06:43.390Z,101135.66
2023-04-04T15:10:46.561Z,101140.50
2023-04-04T15:14:49.556Z,101136.73
2023-04-04T15:18:52.558Z,101129.94
2023-04-04T15:22:55.794Z,101129.34
2023-04-04T15:26:58.813Z,101123.69
2023-04-04T15:31:03.126Z,101118.63
2023-04-04T15:35:07.361Z,101115.17
2023-04-04T15:39:11.413Z,101118.27
2023-04-04T15:43:14.774Z,101116.75
2023-04-04T15:47:18.089Z,101118.80
2023-04-04T15:51:21.522Z,101114.94
2023-04-04T15:55:24.601Z,101115.10
2023-04-04T15:59:27.817Z,101110.11
2023-04-04T16:03:30.917Z,101107.08
2023-04-04T16:07:34.286Z,101107.41
2023-04-04T16:11:38.030Z,101107.63
2023-04-04T16:15:41.255Z,101108.41
2023-04-04T16:19:44.274Z,101105.06
2023-04-04T16:23:47.473Z,101104.65
2023-04-04T16:27:50.629Z,101100.91
2023-04-04T16:31:53.611Z,101096.09
2023-04-04T16:35:58.241Z,101096.41
2023-04-04T16:40:02.155Z,101093.87
2023-04-04T16:44:05.603Z,101089.46
2023-04-04T16:48:09.077Z,101087.70
2023-04-04T16:52:12.190Z,101084.38
2023-04-04T16:56:16.083Z,101082.85
2023-04-04T17:00:20.027Z,101080.70
2023-04-04T17:04:23.165Z,101077.91
2023-04-04T17:08:26.941Z,101073.33
2023-04-04T17:12:29.974Z,101074.02
2023-04-04T17:16:33.456Z,101073.56
2023-04-04T17:20:38.202Z,101068.55
2023-04-04T17:24:41.503Z,101069.04
2023-04-04T17:28:44.646Z,101069.05
2023-04-04T17:32:49.058Z,101066.36
2023-04-04T17:36:53.083Z,101062.70
2023-04-04T17:40:56.283Z,101062.77
2023-04-04T17:44:59.964Z,101065.75
2023-04-04T17:49:03.435Z,101061.06
2023-04-04T17:53:07.460Z,101060.52
2023-04-04T17:57:10.917Z,101064.02
2023-04-04T18:01:14.112Z,101063.63
2023-04-04T18:05:18.183Z,101063.70
2023-04-04T18:09:22.755Z,101069.06
2023-04-04T18:13:38.092Z,101070.06
2023-04-04T18:17:48.078Z,101067.12
2023-04-04T18:22:18.374Z,101067.08
2023-04-04T18:26:40.543Z,101067.73
2023-04-04T18:30:55.337Z,101068.25
2023-04-04T18:34:59.122Z,101068.54
2023-04-04T18:39:16.474Z,101062.61
2023-04-04T18:48:01.695Z,101055.93
2023-04-04T18:52:05.297Z,101059.57
2023-04-04T18:56:09.854Z,101062.61
2023-04-04T19:00:16.378Z,101062.10
2023-04-04T19:04:22.144Z,101057.57
2023-04-04T19:08:29.630Z,101062.60
2023-04-04T19:12:34.235Z,101067.26
2023-04-04T19:16:38.008Z,101065.51
2023-04-04T19:20:43.591Z,101063.26
2023-04-04T19:24:46.827Z,101063.98
2023-04-04T19:28:50.734Z,101061.83
2023-04-04T19:32:54.520Z,101058.89
2023-04-04T19:36:57.526Z,101053.15
2023-04-04T19:41:04.772Z,101049.62
2023-04-04T19:45:13.234Z,101050.11
2023-04-04T19:49:41.987Z,101053.64
2023-04-04T19:54:08.723Z,101052.60
2023-04-04T19:58:42.756Z,101052.96
2023-04-04T20:02:50.109Z,101053.47
2023-04-04T20:06:59.044Z,101053.93
2023-04-04T20:11:07.305Z,101051.77
2023-04-04T20:15:38.330Z,101046.27
2023-04-04T20:19:48.476Z,101043.17
2023-04-04T20:23:58.563Z,101040.71
2023-04-04T20:28:03.092Z,101037.63
2023-04-04T20:32:45.959Z,101040.20
2023-04-04T20:36:56.536Z,101038.88
2023-04-04T20:41:14.984Z,101032.49
2023-04-04T20:45:57.444Z,101031.45
2023-04-04T20:50:17.564Z,101034.86
2023-04-04T20:54:23.864Z,101030.45
2023-04-04T20:58:29.482Z,101031.98
2023-04-04T21:02:34.398Z,101030.44
2023-04-04T21:06:40.140Z,101029.05
2023-04-04T21:10:48.908Z,101025.20
2023-04-04T21:14:52.250Z,101023.06
2023-04-04T21:19:00.484Z,101020.67
2023-04-04T21:23:06.989Z,101023.45
2023-04-04T21:27:34.036Z,101021.67
2023-04-04T21:31:43.364Z,101020.44
2023-04-04T21:35:50.717Z,101014.70
2023-04-04T21:39:57.444Z,101015.40
2023-04-04T21:44:06.771Z,101007.80
2023-04-04T21:48:09.866Z,101007.33
2023-04-04T21:52:13.117Z,101004.08
2023-04-04T21:56:17.653Z,101004.02
2023-04-04T22:00:20.970Z,101000.09
2023-04-04T22:04:24.312Z,100998.98
2023-04-04T22:08:27.877Z,100996.23
2023-04-04T22:12:33.258Z,100993.57
2023-04-04T22:16:39.635Z,100997.02
2023-04-04T22:20:49.022Z,100992.88
2023-04-04T22:24:52.286Z,100987.61
2023-04-04T22:28:59.510Z,100985.02
2023-04-04T22:33:05.233Z,100980.87
2023-04-04T22:37:21.641Z,100990.65
2023-04-04T22:41:29.467Z,100990.17
2023-04-04T22:45:33.732Z,100989.06
2023-04-04T22:49:48.426Z,100989.87
2023-04-04T22:53:51.648Z,100987.55
2023-04-04T22:57:54.886Z,100988.77
2023-04-04T23:01:58.118Z,100981.42
2023-04-04T23:06:01.350Z,100975.63
2023-04-04T23:10:06.801Z,100971.88
2023-04-04T23:14:14.755Z,100971.55
2023-04-04T23:18:18.770Z,100962.91
2023-04-04T23:22:22.154Z,100960.69
2023-04-04T23:26:25.589Z,100962.38
2023-04-04T23:30:29.118Z,100958.71
2023-04-04T23:34:32.146Z,100964.17
2023-04-04T23:38:35.935Z,100962.16
2023-04-04T23:42:39.010Z,100957.93
2023-04-04T23:46:42.060Z,100951.52
2023-04-04T23:50:50.177Z,100942.25
2023-04-04T23:54:53.145Z,100945.04
2023-04-04T23:58:56.142Z,100942.31
